createdAt,value
2019-02-07T00:00:54.116Z,-1.90
2019-02-07T00:03:22.542Z,-1.80
2019-02-07T00:05:50.989Z,-1.90
2019-02-07T00:08:19.854Z,-1.90
2019-02-07T00:10:48.264Z,-1.90
2019-02-07T00:13:16.686Z,-1.90
2019-02-07T00:15:45.119Z,-1.80
2019-02-07T00:18:13.520Z,-1.80
2019-02-07T00:20:42.030Z,-1.80
2019-02-07T00:23:10.441Z,-1.80
2019-02-07T00:25:38.870Z,-1.80
2019-02-07T00:28:07.357Z,-1.80
2019-02-07T00:30:36.075Z,-1.90
2019-02-07T00:33:04.622Z,-1.80
2019-02-07T00:35:33.113Z,-1.80
2019-02-07T00:38:01.544Z,-1.80
2019-02-07T00:40:30.349Z,-1.80
2019-02-07T00:42:58.751Z,-1.80
2019-02-07T00:45:27.245Z,-1.80
2019-02-07T00:47:55.670Z,-1.70
2019-02-07T00:50:24.104Z,-1.70
2019-02-07T00:52:52.591Z,-1.80
2019-02-07T00:55:21.838Z,-1.80
2019-02-07T00:57:50.328Z,-1.90
2019-02-07T01:00:28.961Z,-1.70
2019-02-07T01:02:57.450Z,-1.60
2019-02-07T01:05:26.024Z,-1.70
2019-02-07T01:07:54.509Z,-1.80
2019-02-07T01:10:25.291Z,-1.80
2019-02-07T01:12:53.716Z,-1.80
2019-02-07T01:15:23.254Z,-1.80
2019-02-07T01:17:51.814Z,-1.60
2019-02-07T01:20:20.395Z,-1.50
2019-02-07T01:22:48.884Z,-1.50
2019-02-07T01:25:25.437Z,-1.60
2019-02-07T01:27:54.208Z,-1.60
2019-02-07T01:30:27.363Z,-1.60
2019-02-07T01:32:55.850Z,-1.60
2019-02-07T01:35:24.267Z,-1.50
2019-02-07T01:37:53.093Z,-1.50
2019-02-07T01:40:21.944Z,-1.50
2019-02-07T01:42:50.460Z,-1.50
2019-02-07T01:45:20.829Z,-1.50
2019-02-07T01:47:50.206Z,-1.50
2019-02-07T01:50:20.926Z,-1.40
2019-02-07T01:52:49.879Z,-1.40
2019-02-07T01:55:18.559Z,-1.40
2019-02-07T01:57:47.119Z,-1.40
2019-02-07T02:00:17.388Z,-1.40
2019-02-07T02:02:46.203Z,-1.40
2019-02-07T02:05:16.604Z,-1.50
2019-02-07T02:07:46.118Z,-1.40
2019-02-07T02:10:20.470Z,-1.40
2019-02-07T02:12:49.086Z,-1.40
2019-02-07T02:15:24.640Z,-1.20
2019-02-07T02:17:49.530Z,-1.20
2019-02-07T02:20:20.119Z,-1.10
2019-02-07T02:22:48.693Z,-1.10
2019-02-07T02:25:17.532Z,-1.10
2019-02-07T02:27:47.088Z,-1.10
2019-02-07T02:30:26.863Z,-1.10
2019-02-07T02:32:55.280Z,-1.00
2019-02-07T02:35:24.174Z,-0.90
2019-02-07T02:37:52.658Z,-0.90
2019-02-07T02:40:21.213Z,-0.90
2019-02-07T02:42:49.694Z,-1.00
2019-02-07T02:45:22.771Z,-0.90
2019-02-07T02:47:52.150Z,-0.90
2019-02-07T02:50:21.467Z,-1.00
2019-02-07T02:52:49.897Z,-0.90
2019-02-07T02:55:20.101Z,-0.90
2019-02-07T02:57:48.536Z,-0.80
2019-02-07T03:00:19.260Z,-0.80
2019-02-07T03:02:49.330Z,-0.70
2019-02-07T03:05:19.459Z,-0.80
2019-02-07T03:08:07.015Z,-0.70
2019-02-07T03:10:37.227Z,-0.70
2019-02-07T03:13:13.113Z,-0.70
2019-02-07T03:15:49.704Z,-0.80
2019-02-07T03:18:17.624Z,-0.80
2019-02-07T03:20:53.494Z,-0.80
2019-02-07T03:23:41.337Z,-0.80
2019-02-07T03:26:17.198Z,-0.80
2019-02-07T03:28:50.258Z,-0.80
2019-02-07T03:31:36.544Z,-0.70
2019-02-07T03:34:06.745Z,-0.60
2019-02-07T03:36:42.665Z,-0.60
2019-02-07T03:39:15.607Z,-0.60
2019-02-07T03:41:48.443Z,-0.60
2019-02-07T03:44:21.746Z,-0.50
2019-02-07T03:46:53.727Z,-0.60
2019-02-07T03:49:29.773Z,-0.70
2019-02-07T03:51:59.833Z,-0.70
2019-02-07T03:54:47.943Z,-0.70
2019-02-07T03:57:26.821Z,-0.70
2019-02-07T04:00:12.044Z,-0.70
2019-02-07T04:02:51.490Z,-0.60
2019-02-07T04:05:21.641Z,-0.50
2019-02-07T04:08:07.128Z,-0.50
2019-02-07T04:10:37.586Z,-0.40
2019-02-07T04:13:20.622Z,-0.50
2019-02-07T04:15:50.706Z,-0.30
2019-02-07T04:18:29.645Z,-0.30
2019-02-07T04:21:12.104Z,-0.30
2019-02-07T04:23:59.795Z,-0.30
2019-02-07T04:26:38.797Z,-0.20
2019-02-07T04:29:11.890Z,-0.30
2019-02-07T04:31:56.965Z,-0.20
2019-02-07T04:34:42.066Z,-0.30
2019-02-07T04:37:14.871Z,-0.30
2019-02-07T04:39:51.186Z,-0.20
2019-02-07T04:42:21.246Z,-0.20
2019-02-07T04:45:06.448Z,-0.10
2019-02-07T04:47:39.304Z,-0.10
2019-02-07T04:50:21.060Z,-0.20
2019-02-07T04:52:51.115Z,-0.10
2019-02-07T04:55:21.548Z,0.00
2019-02-07T04:57:57.343Z,0.00
2019-02-07T05:00:42.425Z,0.00
2019-02-07T05:03:24.801Z,0.00
2019-02-07T05:05:54.845Z,0.00
2019-02-07T05:08:34.353Z,0.00
2019-02-07T05:11:13.275Z,0.20
2019-02-07T05:13:43.815Z,0.20
2019-02-07T05:16:16.723Z,0.20
2019-02-07T05:19:03.295Z,0.30
2019-02-07T05:21:45.585Z,0.30
2019-02-07T05:24:18.089Z,0.40
2019-02-07T05:26:56.829Z,0.40
2019-02-07T05:29:35.589Z,0.40
2019-02-07T05:32:14.979Z,0.40
2019-02-07T05:34:53.878Z,0.50
2019-02-07T05:37:39.294Z,0.50
2019-02-07T05:40:17.859Z,0.60
2019-02-07T05:42:57.152Z,0.80
2019-02-07T05:45:27.196Z,1.00
2019-02-07T05:48:00.037Z,1.00
2019-02-07T05:50:39.303Z,1.20
2019-02-07T05:53:18.514Z,1.40
2019-02-07T05:56:07.053Z,1.40
2019-02-07T05:58:37.503Z,1.50
2019-02-07T06:01:13.578Z,1.50
2019-02-07T06:03:49.188Z,1.40
2019-02-07T06:06:19.233Z,1.50
2019-02-07T06:08:58.530Z,1.50
2019-02-07T06:11:43.469Z,1.40
2019-02-07T06:14:13.546Z,1.60
2019-02-07T06:17:02.271Z,1.70
2019-02-07T06:19:26.979Z,1.80
2019-02-07T06:21:59.549Z,2.40
2019-02-07T06:24:29.665Z,2.70
2019-02-07T06:27:12.038Z,2.70
2019-02-07T06:29:44.771Z,2.70
2019-02-07T06:32:14.842Z,2.70
2019-02-07T06:35:01.389Z,2.80
2019-02-07T06:37:34.393Z,2.90
2019-02-07T06:40:04.817Z,3.10
2019-02-07T06:42:34.891Z,3.30
2019-02-07T06:45:21.025Z,3.40
2019-02-07T06:47:51.119Z,3.40
2019-02-07T06:50:27.090Z,3.40
2019-02-07T06:53:12.283Z,3.30
2019-02-07T06:55:42.337Z,3.30
2019-02-07T06:58:24.430Z,3.30
2019-02-07T07:01:00.564Z,3.20
2019-02-07T07:03:33.410Z,3.20
2019-02-07T07:06:19.304Z,3.40
2019-02-07T07:09:05.914Z,3.30
2019-02-07T07:11:39.015Z,3.40
2019-02-07T07:14:12.057Z,3.50
2019-02-07T07:17:00.321Z,3.50
2019-02-07T07:19:46.473Z,3.60
2019-02-07T07:22:32.894Z,3.60
2019-02-07T07:25:19.279Z,3.50
2019-02-07T07:28:04.387Z,3.50
2019-02-07T07:30:46.538Z,3.60
2019-02-07T07:33:16.678Z,3.50
2019-02-07T07:36:03.114Z,3.50
2019-02-07T07:38:48.365Z,3.50
2019-02-07T07:41:34.442Z,3.50
2019-02-07T07:44:04.878Z,3.50
2019-02-07T07:46:51.574Z,3.50
2019-02-07T07:49:24.367Z,3.40
2019-02-07T07:52:06.177Z,3.40
2019-02-07T07:54:51.256Z,3.40
2019-02-07T07:57:27.259Z,3.40
2019-02-07T08:00:09.264Z,3.40
2019-02-07T08:02:39.419Z,3.40
2019-02-07T08:05:12.982Z,3.50
2019-02-07T08:07:45.768Z,3.70
2019-02-07T08:10:15.971Z,3.70
2019-02-07T08:12:52.336Z,3.70
2019-02-07T08:15:29.442Z,3.70
2019-02-07T08:18:11.604Z,3.70
2019-02-07T08:20:59.724Z,3.80
2019-02-07T08:23:41.605Z,3.80
2019-02-07T08:26:28.085Z,3.80
2019-02-07T08:28:58.205Z,3.80
2019-02-07T08:31:40.507Z,3.90
2019-02-07T08:34:13.356Z,4.00
2019-02-07T08:36:59.802Z,3.90
2019-02-07T08:39:29.869Z,4.00
2019-02-07T08:42:02.409Z,4.10
2019-02-07T08:44:32.538Z,4.00
2019-02-07T08:47:17.761Z,4.10
2019-02-07T08:50:04.301Z,4.20
2019-02-07T08:52:50.779Z,4.10
2019-02-07T08:55:37.230Z,4.20
2019-02-07T08:58:22.184Z,4.30
2019-02-07T09:00:58.030Z,4.30
2019-02-07T09:03:46.334Z,4.30
2019-02-07T09:06:28.702Z,4.30
2019-02-07T09:09:15.379Z,4.20
2019-02-07T09:11:54.229Z,4.20
2019-02-07T09:14:33.193Z,4.20
2019-02-07T09:17:18.399Z,4.30
2019-02-07T09:20:03.758Z,4.30
2019-02-07T09:22:42.884Z,4.30
2019-02-07T09:25:34.101Z,4.30
2019-02-07T09:28:10.429Z,4.30
2019-02-07T09:30:56.967Z,4.30
2019-02-07T09:33:45.395Z,4.30
2019-02-07T09:36:27.707Z,4.40
2019-02-07T09:39:00.377Z,4.40
2019-02-07T09:41:39.385Z,4.40
2019-02-07T09:44:26.357Z,4.40
2019-02-07T09:46:56.423Z,4.40
2019-02-07T09:49:38.276Z,4.40
2019-02-07T09:52:20.088Z,4.20
2019-02-07T09:55:05.347Z,4.10
2019-02-07T09:57:35.428Z,4.00
2019-02-07T10:00:16.304Z,4.00
2019-02-07T10:02:46.436Z,4.10
2019-02-07T10:05:19.791Z,4.10
2019-02-07T10:07:52.943Z,4.10
2019-02-07T10:10:29.088Z,4.20
2019-02-07T10:12:59.175Z,4.20
2019-02-07T10:15:45.595Z,4.30
2019-02-07T10:18:33.106Z,4.30
2019-02-07T10:21:17.934Z,4.50
2019-02-07T10:24:04.045Z,4.50
2019-02-07T10:26:34.115Z,4.50
2019-02-07T10:29:22.680Z,4.50
2019-02-07T10:31:52.790Z,4.60
2019-02-07T10:34:22.869Z,4.70
2019-02-07T10:36:53.114Z,4.70
2019-02-07T10:39:29.293Z,4.90
2019-02-07T10:42:16.398Z,4.90
2019-02-07T10:44:57.360Z,5.00
2019-02-07T10:47:27.414Z,5.00
2019-02-07T10:50:01.932Z,5.20
2019-02-07T10:52:32.009Z,5.20
2019-02-07T10:55:05.163Z,5.50
2019-02-07T10:57:38.403Z,5.60
2019-02-07T11:00:25.306Z,5.60
2019-02-07T11:02:58.569Z,5.50
2019-02-07T11:05:28.857Z,5.50
2019-02-07T11:08:15.001Z,5.50
2019-02-07T11:11:02.847Z,5.50
2019-02-07T11:13:35.807Z,5.70
2019-02-07T11:16:09.283Z,5.90
2019-02-07T11:18:41.096Z,6.00
2019-02-07T11:21:27.215Z,6.10
2019-02-07T11:23:57.348Z,6.20
2019-02-07T11:26:42.440Z,6.30
2019-02-07T11:29:18.541Z,6.50
2019-02-07T11:31:51.567Z,6.60
2019-02-07T11:34:30.029Z,6.60
2019-02-07T11:37:12.276Z,6.90
2019-02-07T11:39:54.311Z,6.80
2019-02-07T11:42:30.220Z,6.70
2019-02-07T11:45:00.706Z,6.80
2019-02-07T11:47:32.441Z,6.90
2019-02-07T11:50:18.825Z,7.10
2019-02-07T11:52:57.884Z,7.20
2019-02-07T11:55:36.517Z,7.30
2019-02-07T11:58:12.628Z,7.40
2019-02-07T12:00:42.758Z,7.50
2019-02-07T12:03:12.906Z,7.50
2019-02-07T12:05:59.721Z,7.50
2019-02-07T12:08:47.884Z,7.30
2019-02-07T12:11:26.896Z,7.30
2019-02-07T12:13:56.959Z,7.20
2019-02-07T12:16:36.882Z,7.00
2019-02-07T12:19:18.063Z,6.90
2019-02-07T12:21:54.203Z,6.80
2019-02-07T12:24:33.134Z,6.60
2019-02-07T12:27:08.943Z,6.60
2019-02-07T12:29:55.318Z,6.60
2019-02-07T12:32:41.738Z,6.50
2019-02-07T12:35:20.395Z,6.40
2019-02-07T12:37:50.761Z,6.30
2019-02-07T12:40:23.426Z,6.20
2019-02-07T12:43:03.717Z,6.30
2019-02-07T12:45:36.247Z,6.50
2019-02-07T12:48:15.992Z,6.50
2019-02-07T12:51:02.399Z,6.60
2019-02-07T12:53:35.479Z,6.50
2019-02-07T12:56:06.674Z,6.40
2019-02-07T12:58:48.951Z,6.50
2019-02-07T13:01:22.686Z,6.40
2019-02-07T13:04:01.756Z,6.40
2019-02-07T13:06:39.139Z,6.50
2019-02-07T13:09:20.041Z,6.40
2019-02-07T13:11:50.117Z,6.30
2019-02-07T13:14:28.943Z,6.30
2019-02-07T13:16:59.044Z,6.20
2019-02-07T13:19:40.006Z,6.30
2019-02-07T13:22:00.882Z,6.50
2019-02-07T13:24:33.791Z,6.50
2019-02-07T13:27:07.146Z,6.60
2019-02-07T13:29:52.310Z,6.60
2019-02-07T13:32:22.512Z,6.70
2019-02-07T13:35:07.757Z,6.70
2019-02-07T13:37:37.838Z,6.70
2019-02-07T13:40:17.136Z,6.80
2019-02-07T13:42:56.012Z,6.80
2019-02-07T13:45:29.463Z,6.80
2019-02-07T13:47:59.505Z,6.80
2019-02-07T13:50:32.415Z,6.80
2019-02-07T13:53:01.357Z,6.80
2019-02-07T13:55:43.441Z,6.80
2019-02-07T13:58:18.987Z,6.90
2019-02-07T14:01:07.366Z,7.00
2019-02-07T14:03:52.893Z,7.10
2019-02-07T14:06:22.956Z,7.10
2019-02-07T14:09:15.091Z,7.20
2019-02-07T14:12:21.200Z,7.20
2019-02-07T14:14:51.260Z,7.40
2019-02-07T14:17:26.940Z,7.30
2019-02-07T14:20:13.156Z,7.30
2019-02-07T14:22:52.243Z,7.40
2019-02-07T14:25:28.159Z,7.40
2019-02-07T14:27:58.300Z,7.40
2019-02-07T14:30:34.276Z,7.30
2019-02-07T14:33:09.873Z,7.40
2019-02-07T14:35:51.957Z,7.40
2019-02-07T14:38:28.350Z,7.40
2019-02-07T14:41:01.038Z,7.30
2019-02-07T14:43:47.676Z,7.40
2019-02-07T14:46:24.725Z,7.40
2019-02-07T14:48:53.249Z,7.40
2019-02-07T14:51:21.849Z,7.40
2019-02-07T14:53:50.337Z,7.40
2019-02-07T14:56:18.859Z,7.40
2019-02-07T14:58:47.689Z,7.40
2019-02-07T15:01:16.194Z,7.40
2019-02-07T15:03:44.632Z,7.50
2019-02-07T15:06:22.622Z,7.40
2019-02-07T15:11:35.222Z,7.50
2019-02-07T15:14:03.731Z,7.40
2019-02-07T15:16:32.156Z,7.40
2019-02-07T15:19:00.567Z,7.30
2019-02-07T15:21:29.017Z,7.30
2019-02-07T15:23:57.534Z,7.30
2019-02-07T15:26:26.270Z,7.40
2019-02-07T15:28:54.686Z,7.40
2019-02-07T15:31:23.204Z,7.40
2019-02-07T15:33:51.608Z,7.50
2019-02-07T15:36:20.022Z,7.50
2019-02-07T15:38:48.442Z,7.50
2019-02-07T15:41:17.005Z,7.50
2019-02-07T15:43:45.531Z,7.40
2019-02-07T15:46:14.036Z,7.50
2019-02-07T15:48:42.501Z,7.30
2019-02-07T15:51:11.026Z,7.40
2019-02-07T15:53:39.436Z,7.40
2019-02-07T15:56:08.008Z,7.40
2019-02-07T15:58:41.575Z,7.30
2019-02-07T16:01:11.857Z,7.20
2019-02-07T16:03:42.732Z,7.30
2019-02-07T16:06:11.155Z,7.30
2019-02-07T16:08:39.654Z,7.40
2019-02-07T16:11:08.145Z,7.30
2019-02-07T16:13:36.935Z,7.20
2019-02-07T16:16:05.404Z,7.40
2019-02-07T16:18:33.812Z,7.40
2019-02-07T16:21:11.026Z,7.30
2019-02-07T16:23:39.532Z,7.30
2019-02-07T16:26:08.658Z,7.30
2019-02-07T16:28:37.089Z,7.20
2019-02-07T16:31:06.159Z,7.20
2019-02-07T16:33:34.659Z,7.10
2019-02-07T16:36:03.539Z,7.10
2019-02-07T16:38:33.374Z,7.00
2019-02-07T16:41:02.141Z,7.10
2019-02-07T16:43:30.677Z,6.90
2019-02-07T16:45:59.174Z,6.90
2019-02-07T16:48:27.630Z,6.70
2019-02-07T16:51:00.318Z,6.60
2019-02-07T16:53:26.305Z,6.50
2019-02-07T16:55:54.736Z,6.50
2019-02-07T16:58:23.437Z,6.40
2019-02-07T17:00:51.924Z,6.40
2019-02-07T17:03:20.390Z,6.20
2019-02-07T17:05:48.890Z,6.10
2019-02-07T17:08:17.360Z,6.10
2019-02-07T17:10:45.872Z,5.90
2019-02-07T17:13:14.664Z,5.90
2019-02-07T17:15:43.244Z,5.90
2019-02-07T17:18:11.721Z,5.80
2019-02-07T17:20:40.272Z,5.80
2019-02-07T17:23:08.777Z,5.80
2019-02-07T17:25:37.484Z,5.70
2019-02-07T17:28:06.344Z,5.70
2019-02-07T17:30:35.370Z,5.50
2019-02-07T17:33:03.916Z,5.50
2019-02-07T17:35:33.090Z,5.50
2019-02-07T17:38:01.633Z,5.50
2019-02-07T17:40:30.287Z,5.40
2019-02-07T17:42:58.693Z,5.30
2019-02-07T17:45:32.300Z,5.30
2019-02-07T17:48:01.151Z,5.30
2019-02-07T17:50:40.354Z,5.30
2019-02-07T17:53:10.925Z,5.20
2019-02-07T17:55:39.342Z,5.30
2019-02-07T17:58:08.589Z,5.20
2019-02-07T18:00:50.455Z,5.10
2019-02-07T18:03:18.874Z,5.10
2019-02-07T18:05:47.751Z,5.10
2019-02-07T18:08:16.295Z,5.10
2019-02-07T18:10:44.828Z,5.00
2019-02-07T18:13:13.289Z,5.00
2019-02-07T18:15:41.709Z,5.00
2019-02-07T18:18:10.254Z,5.00
2019-02-07T18:20:38.692Z,4.80
2019-02-07T18:23:07.273Z,4.80
2019-02-07T18:25:35.747Z,4.80
2019-02-07T18:28:04.803Z,4.80
2019-02-07T18:30:33.613Z,4.70
2019-02-07T18:33:02.153Z,4.70
2019-02-07T18:35:30.661Z,4.70
2019-02-07T18:37:59.075Z,4.70
2019-02-07T18:40:30.196Z,4.80
2019-02-07T18:42:58.729Z,4.90
2019-02-07T18:45:27.397Z,4.90
2019-02-07T18:47:55.854Z,4.80
2019-02-07T18:50:38.721Z,4.70
2019-02-07T18:53:08.174Z,4.60
2019-02-07T18:55:36.582Z,4.50
2019-02-07T18:58:05.676Z,4.30
2019-02-07T19:00:36.148Z,4.30
2019-02-07T19:03:06.973Z,4.20
2019-02-07T19:05:35.404Z,4.10
2019-02-07T19:08:04.159Z,3.90
2019-02-07T19:10:32.638Z,3.90
2019-02-07T19:13:01.534Z,3.90
2019-02-07T19:15:33.024Z,3.80
2019-02-07T19:18:01.462Z,3.60
2019-02-07T19:20:29.902Z,3.60
2019-02-07T19:22:58.334Z,3.50
2019-02-07T19:25:26.784Z,3.50
2019-02-07T19:27:55.569Z,3.40
2019-02-07T19:30:32.319Z,3.30
2019-02-07T19:33:00.808Z,3.30
2019-02-07T19:35:29.325Z,3.20
2019-02-07T19:37:57.844Z,3.40
2019-02-07T19:40:26.519Z,3.30
2019-02-07T19:42:55.557Z,3.20
2019-02-07T19:45:25.533Z,3.30
2019-02-07T19:47:53.971Z,3.20
2019-02-07T19:50:29.237Z,3.20
2019-02-07T19:52:58.072Z,3.30
2019-02-07T19:55:31.207Z,3.20
2019-02-07T19:57:59.620Z,3.20
2019-02-07T20:00:32.342Z,3.20
2019-02-07T20:03:00.997Z,3.20
2019-02-07T20:05:31.727Z,3.20
2019-02-07T20:08:00.205Z,3.20
2019-02-07T20:10:30.275Z,3.20
2019-02-07T20:12:59.612Z,3.20
2019-02-07T20:15:39.762Z,3.20
2019-02-07T20:18:10.186Z,3.10
2019-02-07T20:20:39.154Z,3.10
2019-02-07T20:23:07.781Z,3.10
2019-02-07T20:25:36.692Z,2.90
2019-02-07T20:28:05.339Z,3.00
2019-02-07T20:30:39.783Z,3.00
2019-02-07T20:33:08.858Z,3.00
2019-02-07T20:35:37.593Z,2.90
2019-02-07T20:38:06.906Z,2.80
2019-02-07T20:40:35.513Z,2.80
2019-02-07T20:43:05.678Z,2.80
2019-02-07T20:45:34.250Z,2.70
2019-02-07T20:48:02.726Z,2.70
2019-02-07T20:50:31.300Z,2.70
2019-02-07T20:52:59.781Z,2.70
2019-02-07T20:55:28.275Z,2.70
2019-02-07T20:57:56.842Z,2.70
2019-02-07T21:00:34.133Z,2.70
2019-02-07T21:03:02.778Z,2.70
2019-02-07T21:05:32.726Z,2.70
2019-02-07T21:08:01.486Z,2.80
2019-02-07T21:10:38.084Z,2.70
2019-02-07T21:13:07.182Z,2.80
2019-02-07T21:15:35.929Z,2.90
2019-02-07T21:18:05.400Z,3.00
2019-02-07T21:20:33.950Z,3.00
2019-02-07T21:23:02.519Z,3.00
2019-02-07T21:25:33.755Z,3.10
2019-02-07T21:28:02.178Z,3.20
2019-02-07T21:30:32.765Z,3.20
2019-02-07T21:33:01.261Z,3.20
2019-02-07T21:35:30.428Z,3.30
2019-02-07T21:37:58.841Z,3.30
2019-02-07T21:40:31.178Z,3.40
2019-02-07T21:43:00.433Z,3.40
2019-02-07T21:45:29.374Z,3.40
2019-02-07T21:47:59.150Z,3.50
2019-02-07T21:50:31.702Z,3.60
2019-02-07T21:53:00.259Z,3.60
2019-02-07T21:55:30.906Z,3.70
2019-02-07T21:57:59.378Z,3.70
2019-02-07T22:00:33.451Z,3.80
2019-02-07T22:03:02.124Z,3.80
2019-02-07T22:05:30.601Z,3.80
2019-02-07T22:07:59.111Z,3.80
2019-02-07T22:10:27.734Z,3.80
2019-02-07T22:12:56.192Z,4.00
2019-02-07T22:15:26.887Z,4.00
2019-02-07T22:17:56.306Z,4.10
2019-02-07T22:20:30.034Z,4.30
2019-02-07T22:22:59.311Z,4.40
2019-02-07T22:25:28.050Z,4.50
2019-02-07T22:27:56.547Z,4.40
2019-02-07T22:30:28.566Z,4.50
2019-02-07T22:32:57.481Z,4.60
2019-02-07T22:35:26.051Z,4.70
2019-02-07T22:37:54.475Z,4.60
2019-02-07T22:40:25.022Z,4.60
2019-02-07T22:42:53.670Z,4.70
2019-02-07T22:45:25.197Z,4.70
2019-02-07T22:47:53.708Z,4.80
2019-02-07T22:50:29.526Z,4.80
2019-02-07T22:52:59.176Z,4.90
2019-02-07T22:55:27.750Z,4.80
2019-02-07T22:57:56.181Z,4.80
2019-02-07T23:00:38.725Z,4.80
2019-02-07T23:03:14.768Z,4.80
2019-02-07T23:05:43.551Z,4.90
2019-02-07T23:08:12.742Z,4.90
2019-02-07T23:10:41.606Z,4.90
2019-02-07T23:13:10.440Z,4.90
2019-02-07T23:15:38.938Z,5.00
2019-02-07T23:18:08.633Z,5.00
2019-02-07T23:20:37.037Z,5.10
2019-02-07T23:23:08.597Z,5.20
2019-02-07T23:25:37.589Z,5.20
2019-02-07T23:28:06.932Z,5.20
2019-02-07T23:30:35.418Z,5.20
2019-02-07T23:33:05.183Z,5.30
2019-02-07T23:35:33.591Z,5.40
2019-02-07T23:38:02.092Z,5.40
2019-02-07T23:40:30.522Z,5.40
2019-02-07T23:42:59.274Z,5.50
2019-02-07T23:45:27.715Z,5.50
2019-02-07T23:47:56.219Z,5.50
2019-02-07T23:50:24.696Z,5.50
2019-02-07T23:52:53.152Z,5.50
2019-02-07T23:55:21.572Z,5.60
2019-02-07T23:57:51.004Z,5.60
